sensor_id;sensor_type;location;lat;lon;timestamp;P1;durP1;ratioP1;P2;durP2;ratioP2
7759;SDS011;3924;48.830;9.262;2022-12-07T00:01:39;6.57;;;4.90;;
7759;SDS011;3924;48.830;9.262;2022-12-07T00:04:08;5.43;;;4.87;;
7759;SDS011;3924;48.830;9.262;2022-12-07T00:06:38;4.87;;;4.47;;
7759;SDS011;3924;48.830;9.262;2022-12-07T00:09:07;5.40;;;4.77;;
7759;SDS011;3924;48.830;9.262;2022-12-07T00:11:48;5.80;;;5.20;;
7759;SDS011;3924;48.830;9.262;2022-12-07T00:14:52;6.60;;;4.77;;
7759;SDS011;3924;48.830;9.262;2022-12-07T00:17:22;5.93;;;4.70;;
7759;SDS011;3924;48.830;9.262;2022-12-07T00:20:19;5.50;;;4.53;;
7759;SDS011;3924;48.830;9.262;2022-12-07T00:22:55;5.67;;;4.73;;
7759;SDS011;3924;48.830;9.262;2022-12-07T00:25:36;5.13;;;4.63;;
7759;SDS011;3924;48.830;9.262;2022-12-07T00:28:06;9.80;;;5.10;;
7759;SDS011;3924;48.830;9.262;2022-12-07T00:30:46;6.63;;;4.87;;
7759;SDS011;3924;48.830;9.262;2022-12-07T00:33:23;5.13;;;4.63;;
7759;SDS011;3924;48.830;9.262;2022-12-07T00:35:59;5.87;;;4.57;;
7759;SDS011;3924;48.830;9.262;2022-12-07T00:38:37;5.40;;;4.80;;
7759;SDS011;3924;48.830;9.262;2022-12-07T00:41:07;4.93;;;4.43;;
7759;SDS011;3924;48.830;9.262;2022-12-07T00:43:44;7.47;;;5.00;;
7759;SDS011;3924;48.830;9.262;2022-12-07T00:46:18;5.53;;;5.03;;
7759;SDS011;3924;48.830;9.262;2022-12-07T00:49:09;5.20;;;4.60;;
7759;SDS011;3924;48.830;9.262;2022-12-07T00:52:21;6.83;;;4.50;;
7759;SDS011;3924;48.830;9.262;2022-12-07T00:55:11;7.27;;;5.73;;
7759;SDS011;3924;48.830;9.262;2022-12-07T00:58:04;6.57;;;5.30;;
7759;SDS011;3924;48.830;9.262;2022-12-07T01:00:42;5.97;;;4.77;;
7759;SDS011;3924;48.830;9.262;2022-12-07T01:03:53;7.57;;;4.73;;
7759;SDS011;3924;48.830;9.262;2022-12-07T01:06:29;7.77;;;5.60;;
7759;SDS011;3924;48.830;9.262;2022-12-07T01:09:09;6.70;;;5.00;;
7759;SDS011;3924;48.830;9.262;2022-12-07T01:12:02;6.07;;;5.20;;
7759;SDS011;3924;48.830;9.262;2022-12-07T01:14:33;6.40;;;5.03;;
7759;SDS011;3924;48.830;9.262;2022-12-07T01:17:28;8.53;;;6.03;;
7759;SDS011;3924;48.830;9.262;2022-12-07T01:20:13;6.30;;;4.97;;
7759;SDS011;3924;48.830;9.262;2022-12-07T01:22:56;5.20;;;4.70;;
7759;SDS011;3924;48.830;9.262;2022-12-07T01:25:35;7.13;;;5.47;;
7759;SDS011;3924;48.830;9.262;2022-12-07T01:28:07;6.53;;;4.87;;
7759;SDS011;3924;48.830;9.262;2022-12-07T01:31:12;6.17;;;5.37;;
7759;SDS011;3924;48.830;9.262;2022-12-07T01:34:01;6.47;;;5.30;;
7759;SDS011;3924;48.830;9.262;2022-12-07T01:36:41;9.30;;;5.83;;
7759;SDS011;3924;48.830;9.262;2022-12-07T01:39:17;9.03;;;5.63;;
7759;SDS011;3924;48.830;9.262;2022-12-07T01:41:54;7.60;;;5.67;;
7759;SDS011;3924;48.830;9.262;2022-12-07T01:44:28;8.23;;;5.90;;
7759;SDS011;3924;48.830;9.262;2022-12-07T01:47:21;7.70;;;6.07;;
7759;SDS011;3924;48.830;9.262;2022-12-07T01:50:14;6.70;;;5.27;;
7759;SDS011;3924;48.830;9.262;2022-12-07T01:53:06;7.00;;;5.80;;
7759;SDS011;3924;48.830;9.262;2022-12-07T01:55:57;7.83;;;5.40;;
7759;SDS011;3924;48.830;9.262;2022-12-07T01:58:29;6.63;;;5.77;;
7759;SDS011;3924;48.830;9.262;2022-12-07T02:01:02;6.87;;;5.47;;
7759;SDS011;3924;48.830;9.262;2022-12-07T02:03:52;7.97;;;6.40;;
7759;SDS011;3924;48.830;9.262;2022-12-07T02:06:48;8.73;;;6.20;;
7759;SDS011;3924;48.830;9.262;2022-12-07T02:09:24;7.07;;;5.40;;
7759;SDS011;3924;48.830;9.262;2022-12-07T02:11:51;9.57;;;6.20;;
7759;SDS011;3924;48.830;9.262;2022-12-07T02:14:18;7.47;;;5.80;;
7759;SDS011;3924;48.830;9.262;2022-12-07T02:27:46;8.53;;;5.67;;
7759;SDS011;3924;48.830;9.262;2022-12-07T02:30:19;5.87;;;5.27;;
7759;SDS011;3924;48.830;9.262;2022-12-07T02:35:47;7.47;;;5.57;;
7759;SDS011;3924;48.830;9.262;2022-12-07T02:38:35;6.13;;;5.20;;
7759;SDS011;3924;48.830;9.262;2022-12-07T02:43:50;6.90;;;5.57;;
7759;SDS011;3924;48.830;9.262;2022-12-07T02:46:21;6.37;;;5.00;;
7759;SDS011;3924;48.830;9.262;2022-12-07T02:48:51;5.80;;;5.03;;
7759;SDS011;3924;48.830;9.262;2022-12-07T02:51:21;5.90;;;5.03;;
7759;SDS011;3924;48.830;9.262;2022-12-07T02:53:48;5.20;;;4.70;;
7759;SDS011;3924;48.830;9.262;2022-12-07T03:13:00;6.87;;;5.40;;
7759;SDS011;3924;48.830;9.262;2022-12-07T03:18:24;6.27;;;5.30;;
7759;SDS011;3924;48.830;9.262;2022-12-07T03:20:56;7.83;;;4.90;;
7759;SDS011;3924;48.830;9.262;2022-12-07T03:23:27;6.20;;;5.43;;
7759;SDS011;3924;48.830;9.262;2022-12-07T03:25:57;5.63;;;4.57;;
7759;SDS011;3924;48.830;9.262;2022-12-07T03:28:27;7.53;;;5.20;;
7759;SDS011;3924;48.830;9.262;2022-12-07T03:31:00;7.27;;;5.43;;
7759;SDS011;3924;48.830;9.262;2022-12-07T03:33:36;6.23;;;5.57;;
7759;SDS011;3924;48.830;9.262;2022-12-07T03:36:15;6.47;;;5.03;;
7759;SDS011;3924;48.830;9.262;2022-12-07T03:38:52;6.50;;;5.57;;
7759;SDS011;3924;48.830;9.262;2022-12-07T03:41:25;7.13;;;5.30;;
7759;SDS011;3924;48.830;9.262;2022-12-07T03:43:54;6.87;;;5.07;;
7759;SDS011;3924;48.830;9.262;2022-12-07T03:52:00;6.37;;;5.57;;
7759;SDS011;3924;48.830;9.262;2022-12-07T03:54:46;6.97;;;5.80;;
7759;SDS011;3924;48.830;9.262;2022-12-07T03:57:18;5.77;;;5.00;;
7759;SDS011;3924;48.830;9.262;2022-12-07T03:59:45;9.03;;;5.30;;
7759;SDS011;3924;48.830;9.262;2022-12-07T04:02:13;7.03;;;5.23;;
7759;SDS011;3924;48.830;9.262;2022-12-07T04:04:41;7.33;;;5.60;;
7759;SDS011;3924;48.830;9.262;2022-12-07T04:07:09;6.13;;;5.27;;
7759;SDS011;3924;48.830;9.262;2022-12-07T04:09:36;5.53;;;4.80;;
7759;SDS011;3924;48.830;9.262;2022-12-07T04:12:03;6.33;;;4.93;;
7759;SDS011;3924;48.830;9.262;2022-12-07T04:14:30;7.77;;;5.30;;
7759;SDS011;3924;48.830;9.262;2022-12-07T04:16:57;6.23;;;5.20;;
7759;SDS011;3924;48.830;9.262;2022-12-07T04:19:25;6.93;;;5.20;;
7759;SDS011;3924;48.830;9.262;2022-12-07T04:21:56;6.73;;;5.33;;
7759;SDS011;3924;48.830;9.262;2022-12-07T04:24:24;8.73;;;5.43;;
7759;SDS011;3924;48.830;9.262;2022-12-07T04:26:51;7.63;;;5.23;;
7759;SDS011;3924;48.830;9.262;2022-12-07T04:29:18;6.43;;;5.70;;
7759;SDS011;3924;48.830;9.262;2022-12-07T04:31:45;9.53;;;6.37;;
7759;SDS011;3924;48.830;9.262;2022-12-07T04:34:12;7.17;;;5.77;;
7759;SDS011;3924;48.830;9.262;2022-12-07T04:36:39;10.40;;;5.40;;
7759;SDS011;3924;48.830;9.262;2022-12-07T04:39:07;11.30;;;5.90;;
7759;SDS011;3924;48.830;9.262;2022-12-07T04:41:43;6.80;;;5.87;;
7759;SDS011;3924;48.830;9.262;2022-12-07T04:44:10;6.73;;;5.80;;
7759;SDS011;3924;48.830;9.262;2022-12-07T04:46:40;8.87;;;6.30;;
7759;SDS011;3924;48.830;9.262;2022-12-07T04:49:07;7.90;;;5.60;;
7759;SDS011;3924;48.830;9.262;2022-12-07T04:51:35;6.97;;;5.50;;
7759;SDS011;3924;48.830;9.262;2022-12-07T04:54:01;8.30;;;5.63;;
7759;SDS011;3924;48.830;9.262;2022-12-07T04:56:27;5.97;;;4.83;;
7759;SDS011;3924;48.830;9.262;2022-12-07T04:58:54;7.83;;;5.80;;
7759;SDS011;3924;48.830;9.262;2022-12-07T05:01:21;7.33;;;5.70;;
7759;SDS011;3924;48.830;9.262;2022-12-07T05:03:48;6.80;;;5.20;;
7759;SDS011;3924;48.830;9.262;2022-12-07T05:06:15;7.20;;;5.57;;
7759;SDS011;3924;48.830;9.262;2022-12-07T05:08:42;7.20;;;5.50;;
7759;SDS011;3924;48.830;9.262;2022-12-07T05:11:09;9.33;;;5.97;;
7759;SDS011;3924;48.830;9.262;2022-12-07T05:13:56;6.87;;;5.20;;
7759;SDS011;3924;48.830;9.262;2022-12-07T05:16:23;5.90;;;4.87;;
7759;SDS011;3924;48.830;9.262;2022-12-07T05:18:50;5.17;;;4.67;;
7759;SDS011;3924;48.830;9.262;2022-12-07T05:21:17;6.43;;;4.97;;
7759;SDS011;3924;48.830;9.262;2022-12-07T05:23:44;8.30;;;5.30;;
7759;SDS011;3924;48.830;9.262;2022-12-07T05:26:11;7.93;;;5.13;;
7759;SDS011;3924;48.830;9.262;2022-12-07T05:28:37;5.63;;;4.77;;
7759;SDS011;3924;48.830;9.262;2022-12-07T05:31:04;6.20;;;5.40;;
7759;SDS011;3924;48.830;9.262;2022-12-07T05:33:30;9.00;;;6.10;;
7759;SDS011;3924;48.830;9.262;2022-12-07T05:35:57;10.67;;;5.87;;
7759;SDS011;3924;48.830;9.262;2022-12-07T05:38:23;6.00;;;5.40;;
7759;SDS011;3924;48.830;9.262;2022-12-07T05:40:51;8.73;;;5.77;;
7759;SDS011;3924;48.830;9.262;2022-12-07T05:43:17;7.77;;;5.60;;
7759;SDS011;3924;48.830;9.262;2022-12-07T05:45:44;7.77;;;5.60;;
7759;SDS011;3924;48.830;9.262;2022-12-07T05:48:10;8.33;;;6.23;;
7759;SDS011;3924;48.830;9.262;2022-12-07T05:50:37;10.37;;;5.90;;
7759;SDS011;3924;48.830;9.262;2022-12-07T05:53:03;7.43;;;5.50;;
7759;SDS011;3924;48.830;9.262;2022-12-07T05:55:29;8.47;;;5.33;;
7759;SDS011;3924;48.830;9.262;2022-12-07T05:57:56;8.43;;;5.93;;
7759;SDS011;3924;48.830;9.262;2022-12-07T06:00:41;7.83;;;5.57;;
7759;SDS011;3924;48.830;9.262;2022-12-07T06:03:13;8.97;;;6.47;;
7759;SDS011;3924;48.830;9.262;2022-12-07T06:05:39;8.03;;;5.83;;
7759;SDS011;3924;48.830;9.262;2022-12-07T06:08:06;6.97;;;6.00;;
7759;SDS011;3924;48.830;9.262;2022-12-07T06:10:32;10.80;;;6.23;;
7759;SDS011;3924;48.830;9.262;2022-12-07T06:12:59;8.17;;;6.23;;
7759;SDS011;3924;48.830;9.262;2022-12-07T06:15:25;8.77;;;6.10;;
7759;SDS011;3924;48.830;9.262;2022-12-07T06:17:52;9.20;;;6.77;;
7759;SDS011;3924;48.830;9.262;2022-12-07T06:20:18;9.47;;;6.10;;
7759;SDS011;3924;48.830;9.262;2022-12-07T06:22:45;10.10;;;5.80;;
7759;SDS011;3924;48.830;9.262;2022-12-07T06:25:11;12.10;;;6.23;;
7759;SDS011;3924;48.830;9.262;2022-12-07T06:27:38;7.17;;;5.77;;
7759;SDS011;3924;48.830;9.262;2022-12-07T06:30:04;10.10;;;6.20;;
7759;SDS011;3924;48.830;9.262;2022-12-07T06:32:33;7.57;;;5.73;;
7759;SDS011;3924;48.830;9.262;2022-12-07T06:34:59;6.93;;;5.43;;
7759;SDS011;3924;48.830;9.262;2022-12-07T06:37:26;9.30;;;6.07;;
7759;SDS011;3924;48.830;9.262;2022-12-07T06:39:52;6.93;;;5.53;;
7759;SDS011;3924;48.830;9.262;2022-12-07T06:42:19;6.77;;;5.37;;
7759;SDS011;3924;48.830;9.262;2022-12-07T06:44:45;8.03;;;5.50;;
7759;SDS011;3924;48.830;9.262;2022-12-07T06:47:11;8.13;;;5.80;;
7759;SDS011;3924;48.830;9.262;2022-12-07T06:49:58;9.97;;;6.03;;
7759;SDS011;3924;48.830;9.262;2022-12-07T06:52:25;7.20;;;5.57;;
7759;SDS011;3924;48.830;9.262;2022-12-07T06:54:51;13.63;;;5.20;;
7759;SDS011;3924;48.830;9.262;2022-12-07T06:57:18;6.97;;;5.77;;
7759;SDS011;3924;48.830;9.262;2022-12-07T06:59:46;7.60;;;5.30;;
7759;SDS011;3924;48.830;9.262;2022-12-07T07:02:12;8.10;;;5.60;;
7759;SDS011;3924;48.830;9.262;2022-12-07T07:04:39;6.57;;;5.13;;
7759;SDS011;3924;48.830;9.262;2022-12-07T07:07:05;5.73;;;4.83;;
7759;SDS011;3924;48.830;9.262;2022-12-07T07:09:32;6.73;;;5.50;;
7759;SDS011;3924;48.830;9.262;2022-12-07T07:11:59;6.93;;;5.47;;
7759;SDS011;3924;48.830;9.262;2022-12-07T07:14:25;5.43;;;4.93;;
7759;SDS011;3924;48.830;9.262;2022-12-07T07:16:52;8.03;;;5.30;;
7759;SDS011;3924;48.830;9.262;2022-12-07T07:19:18;6.83;;;5.67;;
7759;SDS011;3924;48.830;9.262;2022-12-07T07:21:45;6.67;;;4.77;;
7759;SDS011;3924;48.830;9.262;2022-12-07T07:24:11;6.97;;;4.57;;
7759;SDS011;3924;48.830;9.262;2022-12-07T07:26:38;5.00;;;4.47;;
7759;SDS011;3924;48.830;9.262;2022-12-07T07:29:04;8.67;;;4.47;;
7759;SDS011;3924;48.830;9.262;2022-12-07T07:31:30;5.70;;;4.77;;
7759;SDS011;3924;48.830;9.262;2022-12-07T07:33:57;6.23;;;4.03;;
7759;SDS011;3924;48.830;9.262;2022-12-07T07:36:24;6.90;;;4.57;;
7759;SDS011;3924;48.830;9.262;2022-12-07T07:38:50;5.03;;;4.10;;
7759;SDS011;3924;48.830;9.262;2022-12-07T07:41:16;8.70;;;4.80;;
7759;SDS011;3924;48.830;9.262;2022-12-07T07:43:43;4.63;;;4.13;;
7759;SDS011;3924;48.830;9.262;2022-12-07T07:46:09;8.47;;;4.97;;
7759;SDS011;3924;48.830;9.262;2022-12-07T07:48:36;6.07;;;4.53;;
7759;SDS011;3924;48.830;9.262;2022-12-07T07:51:06;9.67;;;5.63;;
7759;SDS011;3924;48.830;9.262;2022-12-07T07:53:34;6.03;;;4.30;;
7759;SDS011;3924;48.830;9.262;2022-12-07T07:56:00;5.77;;;5.03;;
7759;SDS011;3924;48.830;9.262;2022-12-07T07:58:27;8.37;;;5.23;;
7759;SDS011;3924;48.830;9.262;2022-12-07T08:00:53;7.90;;;4.70;;
7759;SDS011;3924;48.830;9.262;2022-12-07T08:03:20;7.57;;;4.93;;
7759;SDS011;3924;48.830;9.262;2022-12-07T08:05:46;5.73;;;4.40;;
7759;SDS011;3924;48.830;9.262;2022-12-07T08:08:13;8.53;;;4.90;;
7759;SDS011;3924;48.830;9.262;2022-12-07T08:10:39;8.93;;;4.47;;
7759;SDS011;3924;48.830;9.262;2022-12-07T08:13:09;6.03;;;4.20;;
7759;SDS011;3924;48.830;9.262;2022-12-07T08:15:41;7.50;;;5.17;;
7759;SDS011;3924;48.830;9.262;2022-12-07T08:18:19;7.17;;;4.97;;
7759;SDS011;3924;48.830;9.262;2022-12-07T08:20:45;9.57;;;4.83;;
7759;SDS011;3924;48.830;9.262;2022-12-07T08:23:12;6.90;;;4.60;;
7759;SDS011;3924;48.830;9.262;2022-12-07T08:25:38;5.20;;;3.70;;
7759;SDS011;3924;48.830;9.262;2022-12-07T08:28:05;6.73;;;4.00;;
7759;SDS011;3924;48.830;9.262;2022-12-07T08:30:32;6.33;;;3.67;;
7759;SDS011;3924;48.830;9.262;2022-12-07T08:32:59;9.60;;;4.00;;
7759;SDS011;3924;48.830;9.262;2022-12-07T08:35:25;4.13;;;3.73;;
7759;SDS011;3924;48.830;9.262;2022-12-07T08:37:52;7.43;;;4.53;;
7759;SDS011;3924;48.830;9.262;2022-12-07T08:40:18;5.63;;;4.07;;
7759;SDS011;3924;48.830;9.262;2022-12-07T08:42:50;4.17;;;3.73;;
7759;SDS011;3924;48.830;9.262;2022-12-07T08:45:17;5.73;;;4.07;;
7759;SDS011;3924;48.830;9.262;2022-12-07T08:48:03;6.50;;;4.73;;
7759;SDS011;3924;48.830;9.262;2022-12-07T08:50:32;5.77;;;4.20;;
7759;SDS011;3924;48.830;9.262;2022-12-07T08:52:59;4.83;;;4.10;;
7759;SDS011;3924;48.830;9.262;2022-12-07T08:55:26;6.03;;;3.93;;
7759;SDS011;3924;48.830;9.262;2022-12-07T08:57:54;5.33;;;4.20;;
7759;SDS011;3924;48.830;9.262;2022-12-07T09:00:23;5.30;;;4.17;;
7759;SDS011;3924;48.830;9.262;2022-12-07T09:02:49;6.30;;;3.93;;
7759;SDS011;3924;48.830;9.262;2022-12-07T09:05:16;3.47;;;3.17;;
7759;SDS011;3924;48.830;9.262;2022-12-07T09:07:59;6.10;;;3.93;;
7759;SDS011;3924;48.830;9.262;2022-12-07T09:10:28;11.47;;;5.63;;
7759;SDS011;3924;48.830;9.262;2022-12-07T09:12:55;6.83;;;4.80;;
7759;SDS011;3924;48.830;9.262;2022-12-07T09:15:22;4.30;;;3.50;;
7759;SDS011;3924;48.830;9.262;2022-12-07T09:17:48;9.57;;;4.03;;
7759;SDS011;3924;48.830;9.262;2022-12-07T09:20:14;4.53;;;3.73;;
7759;SDS011;3924;48.830;9.262;2022-12-07T09:22:41;5.97;;;4.17;;
7759;SDS011;3924;48.830;9.262;2022-12-07T09:25:07;5.10;;;3.80;;
7759;SDS011;3924;48.830;9.262;2022-12-07T09:27:34;6.03;;;4.00;;
7759;SDS011;3924;48.830;9.262;2022-12-07T09:30:01;4.67;;;3.60;;
7759;SDS011;3924;48.830;9.262;2022-12-07T09:32:28;6.60;;;4.57;;
7759;SDS011;3924;48.830;9.262;2022-12-07T09:34:54;10.43;;;4.20;;
7759;SDS011;3924;48.830;9.262;2022-12-07T09:37:21;4.10;;;3.70;;
7759;SDS011;3924;48.830;9.262;2022-12-07T09:39:48;3.50;;;3.20;;
7759;SDS011;3924;48.830;9.262;2022-12-07T09:42:24;6.73;;;3.63;;
7759;SDS011;3924;48.830;9.262;2022-12-07T09:44:55;4.07;;;3.40;;
7759;SDS011;3924;48.830;9.262;2022-12-07T09:47:22;5.27;;;3.97;;
7759;SDS011;3924;48.830;9.262;2022-12-07T09:49:49;5.37;;;3.77;;
7759;SDS011;3924;48.830;9.262;2022-12-07T09:52:19;4.20;;;3.43;;
7759;SDS011;3924;48.830;9.262;2022-12-07T09:54:51;6.13;;;4.20;;
7759;SDS011;3924;48.830;9.262;2022-12-07T09:57:18;4.43;;;3.10;;
7759;SDS011;3924;48.830;9.262;2022-12-07T09:59:52;2.97;;;2.63;;
7759;SDS011;3924;48.830;9.262;2022-12-07T10:02:33;3.73;;;2.90;;
7759;SDS011;3924;48.830;9.262;2022-12-07T10:05:06;4.27;;;3.17;;
7759;SDS011;3924;48.830;9.262;2022-12-07T10:07:40;4.33;;;2.93;;
7759;SDS011;3924;48.830;9.262;2022-12-07T10:10:15;2.80;;;2.57;;
7759;SDS011;3924;48.830;9.262;2022-12-07T10:12:56;3.53;;;3.00;;
7759;SDS011;3924;48.830;9.262;2022-12-07T10:15:23;3.77;;;3.03;;
7759;SDS011;3924;48.830;9.262;2022-12-07T10:17:50;3.57;;;3.10;;
7759;SDS011;3924;48.830;9.262;2022-12-07T10:22:54;2.70;;;2.40;;
7759;SDS011;3924;48.830;9.262;2022-12-07T10:25:33;4.10;;;2.57;;
7759;SDS011;3924;48.830;9.262;2022-12-07T10:36:17;5.00;;;3.30;;
7759;SDS011;3924;48.830;9.262;2022-12-07T10:39:39;4.77;;;3.30;;
7759;SDS011;3924;48.830;9.262;2022-12-07T10:41:58;3.13;;;2.67;;
7759;SDS011;3924;48.830;9.262;2022-12-07T10:44:28;2.67;;;2.47;;
7759;SDS011;3924;48.830;9.262;2022-12-07T10:47:12;4.17;;;2.90;;
7759;SDS011;3924;48.830;9.262;2022-12-07T10:49:51;3.03;;;2.73;;
7759;SDS011;3924;48.830;9.262;2022-12-07T11:03:54;3.83;;;3.33;;
7759;SDS011;3924;48.830;9.262;2022-12-07T11:06:39;3.20;;;2.90;;
7759;SDS011;3924;48.830;9.262;2022-12-07T11:12:22;3.50;;;3.20;;
7759;SDS011;3924;48.830;9.262;2022-12-07T11:15:13;4.43;;;2.87;;
7759;SDS011;3924;48.830;9.262;2022-12-07T11:20:29;2.50;;;2.30;;
7759;SDS011;3924;48.830;9.262;2022-12-07T11:26:19;3.83;;;2.93;;
7759;SDS011;3924;48.830;9.262;2022-12-07T11:32:22;2.93;;;2.63;;
7759;SDS011;3924;48.830;9.262;2022-12-07T11:37:49;2.47;;;2.27;;
7759;SDS011;3924;48.830;9.262;2022-12-07T11:46:00;2.83;;;2.43;;
7759;SDS011;3924;48.830;9.262;2022-12-07T11:48:41;2.83;;;2.63;;
7759;SDS011;3924;48.830;9.262;2022-12-07T11:51:11;3.27;;;2.63;;
7759;SDS011;3924;48.830;9.262;2022-12-07T11:53:39;1.50;;;1.27;;
7759;SDS011;3924;48.830;9.262;2022-12-07T11:56:13;4.20;;;3.23;;
7759;SDS011;3924;48.830;9.262;2022-12-07T11:58:50;5.13;;;3.50;;
7759;SDS011;3924;48.830;9.262;2022-12-07T12:01:26;4.00;;;3.57;;
7759;SDS011;3924;48.830;9.262;2022-12-07T12:04:00;5.33;;;4.23;;
7759;SDS011;3924;48.830;9.262;2022-12-07T12:06:27;4.83;;;3.67;;
7759;SDS011;3924;48.830;9.262;2022-12-07T12:08:55;4.43;;;3.60;;
7759;SDS011;3924;48.830;9.262;2022-12-07T12:15:16;6.03;;;3.67;;
7759;SDS011;3924;48.830;9.262;2022-12-07T12:18:06;4.80;;;4.20;;
7759;SDS011;3924;48.830;9.262;2022-12-07T12:21:00;5.37;;;4.17;;
7759;SDS011;3924;48.830;9.262;2022-12-07T12:23:35;13.13;;;4.97;;
7759;SDS011;3924;48.830;9.262;2022-12-07T12:26:03;5.03;;;4.40;;
7759;SDS011;3924;48.830;9.262;2022-12-07T12:28:49;6.23;;;5.07;;
7759;SDS011;3924;48.830;9.262;2022-12-07T12:33:50;5.33;;;4.23;;
7759;SDS011;3924;48.830;9.262;2022-12-07T12:36:20;4.30;;;3.90;;
7759;SDS011;3924;48.830;9.262;2022-12-07T12:46:49;4.67;;;4.20;;
7759;SDS011;3924;48.830;9.262;2022-12-07T12:51:51;7.17;;;4.07;;
7759;SDS011;3924;48.830;9.262;2022-12-07T12:54:28;4.50;;;4.10;;
7759;SDS011;3924;48.830;9.262;2022-12-07T13:04:56;4.53;;;3.93;;
7759;SDS011;3924;48.830;9.262;2022-12-07T13:10:21;5.47;;;4.83;;
7759;SDS011;3924;48.830;9.262;2022-12-07T13:12:55;5.63;;;3.93;;
7759;SDS011;3924;48.830;9.262;2022-12-07T13:18:49;5.07;;;4.27;;
7759;SDS011;3924;48.830;9.262;2022-12-07T13:24:08;4.20;;;3.80;;
7759;SDS011;3924;48.830;9.262;2022-12-07T13:28:48;6.17;;;4.17;;
7759;SDS011;3924;48.830;9.262;2022-12-07T13:31:56;4.87;;;3.57;;
7759;SDS011;3924;48.830;9.262;2022-12-07T13:34:38;6.63;;;5.50;;
7759;SDS011;3924;48.830;9.262;2022-12-07T13:39:47;5.97;;;4.17;;
7759;SDS011;3924;48.830;9.262;2022-12-07T13:42:25;5.80;;;4.50;;
7759;SDS011;3924;48.830;9.262;2022-12-07T13:44:53;5.57;;;4.60;;
7759;SDS011;3924;48.830;9.262;2022-12-07T13:47:43;5.00;;;4.40;;
7759;SDS011;3924;48.830;9.262;2022-12-07T13:50:22;4.90;;;4.17;;
7759;SDS011;3924;48.830;9.262;2022-12-07T13:52:59;5.43;;;4.30;;
7759;SDS011;3924;48.830;9.262;2022-12-07T13:55:27;5.67;;;3.77;;
7759;SDS011;3924;48.830;9.262;2022-12-07T13:57:54;7.50;;;5.33;;
7759;SDS011;3924;48.830;9.262;2022-12-07T14:00:22;6.67;;;5.03;;
7759;SDS011;3924;48.830;9.262;2022-12-07T14:02:59;6.43;;;4.87;;
7759;SDS011;3924;48.830;9.262;2022-12-07T14:05:28;8.80;;;5.00;;
7759;SDS011;3924;48.830;9.262;2022-12-07T14:07:57;7.43;;;4.63;;
7759;SDS011;3924;48.830;9.262;2022-12-07T14:10:34;5.47;;;4.80;;
7759;SDS011;3924;48.830;9.262;2022-12-07T14:13:03;12.67;;;7.77;;
7759;SDS011;3924;48.830;9.262;2022-12-07T14:15:49;6.83;;;5.33;;
7759;SDS011;3924;48.830;9.262;2022-12-07T14:18:30;5.97;;;5.17;;
7759;SDS011;3924;48.830;9.262;2022-12-07T14:21:14;6.40;;;5.57;;
7759;SDS011;3924;48.830;9.262;2022-12-07T14:23:45;5.60;;;4.43;;
7759;SDS011;3924;48.830;9.262;2022-12-07T14:26:20;5.30;;;4.67;;
7759;SDS011;3924;48.830;9.262;2022-12-07T14:28:47;8.10;;;4.70;;
7759;SDS011;3924;48.830;9.262;2022-12-07T14:31:15;9.13;;;6.03;;
7759;SDS011;3924;48.830;9.262;2022-12-07T14:33:54;5.37;;;4.70;;
7759;SDS011;3924;48.830;9.262;2022-12-07T14:36:25;7.77;;;5.70;;
7759;SDS011;3924;48.830;9.262;2022-12-07T14:38:51;7.47;;;4.47;;
7759;SDS011;3924;48.830;9.262;2022-12-07T14:41:20;8.30;;;5.93;;
7759;SDS011;3924;48.830;9.262;2022-12-07T14:44:13;7.17;;;5.03;;
7759;SDS011;3924;48.830;9.262;2022-12-07T14:46:50;13.10;;;6.20;;
7759;SDS011;3924;48.830;9.262;2022-12-07T14:49:37;6.10;;;5.00;;
7759;SDS011;3924;48.830;9.262;2022-12-07T14:52:03;6.87;;;5.70;;
7759;SDS011;3924;48.830;9.262;2022-12-07T14:54:52;5.67;;;4.60;;
7759;SDS011;3924;48.830;9.262;2022-12-07T14:57:18;7.67;;;5.43;;
7759;SDS011;3924;48.830;9.262;2022-12-07T14:59:45;8.80;;;5.80;;
7759;SDS011;3924;48.830;9.262;2022-12-07T15:02:13;8.87;;;5.57;;
7759;SDS011;3924;48.830;9.262;2022-12-07T15:04:40;8.90;;;6.10;;
7759;SDS011;3924;48.830;9.262;2022-12-07T15:07:18;6.13;;;4.93;;
7759;SDS011;3924;48.830;9.262;2022-12-07T15:09:47;10.33;;;6.10;;
7759;SDS011;3924;48.830;9.262;2022-12-07T15:12:14;9.50;;;5.73;;
7759;SDS011;3924;48.830;9.262;2022-12-07T15:14:41;6.20;;;5.20;;
7759;SDS011;3924;48.830;9.262;2022-12-07T15:17:09;8.23;;;6.27;;
7759;SDS011;3924;48.830;9.262;2022-12-07T15:19:51;13.50;;;5.80;;
7759;SDS011;3924;48.830;9.262;2022-12-07T15:22:17;10.83;;;6.57;;
7759;SDS011;3924;48.830;9.262;2022-12-07T15:24:44;7.17;;;5.27;;
7759;SDS011;3924;48.830;9.262;2022-12-07T15:27:10;8.80;;;5.87;;
7759;SDS011;3924;48.830;9.262;2022-12-07T15:29:36;9.27;;;5.93;;
7759;SDS011;3924;48.830;9.262;2022-12-07T15:32:03;6.83;;;4.77;;
7759;SDS011;3924;48.830;9.262;2022-12-07T15:34:29;8.23;;;4.90;;
7759;SDS011;3924;48.830;9.262;2022-12-07T15:37:05;7.47;;;4.50;;
7759;SDS011;3924;48.830;9.262;2022-12-07T15:39:32;8.17;;;5.73;;
7759;SDS011;3924;48.830;9.262;2022-12-07T15:41:59;8.07;;;6.13;;
7759;SDS011;3924;48.830;9.262;2022-12-07T15:44:25;11.20;;;5.03;;
7759;SDS011;3924;48.830;9.262;2022-12-07T15:47:10;7.03;;;5.63;;
7759;SDS011;3924;48.830;9.262;2022-12-07T15:49:37;7.17;;;5.30;;
7759;SDS011;3924;48.830;9.262;2022-12-07T15:52:03;7.40;;;5.97;;
7759;SDS011;3924;48.830;9.262;2022-12-07T15:54:30;7.33;;;5.63;;
7759;SDS011;3924;48.830;9.262;2022-12-07T15:56:58;9.37;;;6.27;;
7759;SDS011;3924;48.830;9.262;2022-12-07T15:59:25;7.97;;;6.23;;
7759;SDS011;3924;48.830;9.262;2022-12-07T16:01:53;9.47;;;6.30;;
7759;SDS011;3924;48.830;9.262;2022-12-07T16:04:19;8.53;;;5.83;;
7759;SDS011;3924;48.830;9.262;2022-12-07T16:06:46;7.93;;;5.73;;
7759;SDS011;3924;48.830;9.262;2022-12-07T16:09:12;7.77;;;5.80;;
7759;SDS011;3924;48.830;9.262;2022-12-07T16:11:39;8.90;;;5.80;;
7759;SDS011;3924;48.830;9.262;2022-12-07T16:14:05;8.07;;;6.10;;
7759;SDS011;3924;48.830;9.262;2022-12-07T16:16:32;8.70;;;5.67;;
7759;SDS011;3924;48.830;9.262;2022-12-07T16:18:59;8.60;;;6.10;;
7759;SDS011;3924;48.830;9.262;2022-12-07T16:21:25;7.03;;;5.60;;
7759;SDS011;3924;48.830;9.262;2022-12-07T16:23:52;6.87;;;5.37;;
7759;SDS011;3924;48.830;9.262;2022-12-07T16:26:20;5.63;;;4.83;;
7759;SDS011;3924;48.830;9.262;2022-12-07T16:28:51;9.67;;;6.00;;
7759;SDS011;3924;48.830;9.262;2022-12-07T16:31:19;7.93;;;5.70;;
7759;SDS011;3924;48.830;9.262;2022-12-07T16:33:47;8.77;;;6.50;;
7759;SDS011;3924;48.830;9.262;2022-12-07T16:36:15;8.57;;;5.77;;
7759;SDS011;3924;48.830;9.262;2022-12-07T16:39:03;9.80;;;6.00;;
7759;SDS011;3924;48.830;9.262;2022-12-07T16:41:30;7.63;;;5.37;;
7759;SDS011;3924;48.830;9.262;2022-12-07T16:43:58;8.27;;;6.10;;
7759;SDS011;3924;48.830;9.262;2022-12-07T16:46:29;8.23;;;5.93;;
7759;SDS011;3924;48.830;9.262;2022-12-07T16:48:55;9.57;;;6.90;;
7759;SDS011;3924;48.830;9.262;2022-12-07T16:51:22;8.77;;;6.40;;
7759;SDS011;3924;48.830;9.262;2022-12-07T16:53:48;6.67;;;5.50;;
7759;SDS011;3924;48.830;9.262;2022-12-07T16:56:15;9.73;;;6.20;;
7759;SDS011;3924;48.830;9.262;2022-12-07T16:58:42;7.27;;;5.40;;
7759;SDS011;3924;48.830;9.262;2022-12-07T17:01:13;7.97;;;6.37;;
7759;SDS011;3924;48.830;9.262;2022-12-07T17:03:42;8.10;;;5.97;;
7759;SDS011;3924;48.830;9.262;2022-12-07T17:06:13;8.87;;;6.03;;
7759;SDS011;3924;48.830;9.262;2022-12-07T17:08:42;8.83;;;6.03;;
7759;SDS011;3924;48.830;9.262;2022-12-07T17:11:09;9.67;;;6.63;;
7759;SDS011;3924;48.830;9.262;2022-12-07T17:13:37;11.90;;;6.37;;
7759;SDS011;3924;48.830;9.262;2022-12-07T17:16:22;10.63;;;6.17;;
7759;SDS011;3924;48.830;9.262;2022-12-07T17:18:49;7.87;;;5.67;;
7759;SDS011;3924;48.830;9.262;2022-12-07T17:21:15;8.40;;;6.53;;
7759;SDS011;3924;48.830;9.262;2022-12-07T17:23:42;10.20;;;6.80;;
7759;SDS011;3924;48.830;9.262;2022-12-07T17:26:13;9.93;;;7.03;;
7759;SDS011;3924;48.830;9.262;2022-12-07T17:28:41;7.73;;;5.30;;
7759;SDS011;3924;48.830;9.262;2022-12-07T17:31:10;14.03;;;7.03;;
7759;SDS011;3924;48.830;9.262;2022-12-07T17:33:38;9.93;;;7.13;;
7759;SDS011;3924;48.830;9.262;2022-12-07T17:36:21;10.93;;;7.00;;
7759;SDS011;3924;48.830;9.262;2022-12-07T17:38:49;9.80;;;7.17;;
7759;SDS011;3924;48.830;9.262;2022-12-07T17:41:18;12.37;;;6.87;;
7759;SDS011;3924;48.830;9.262;2022-12-07T17:44:14;12.17;;;7.30;;
7759;SDS011;3924;48.830;9.262;2022-12-07T17:46:42;11.57;;;8.00;;
7759;SDS011;3924;48.830;9.262;2022-12-07T17:49:10;14.40;;;7.73;;